Time;durP1;ratioP1;P1;durP2;ratioP2;P2;SDS_P1;SDS_P2;PMS_P1;PMS_P2;Temp;Humidity;BMP_temperature;BMP_pressure;BME280_temperature;BME280_humidity;BME280_pressure;Samples;Min_cycle;Max_cycle;Signal;HPM_P1;HPM_P2
2023/12/03 00:01:54;;;;;;;;;4.67;4.67;;;;;21.62;48.82;100346.63;112074;1247;20693;-31
2023/12/03 00:04:22;;;;;;;;;5.00;4.00;;;;;21.62;48.73;100351.33;112119;1263;18223;-31
2023/12/03 00:06:49;;;;;;;;;4.50;4.50;;;;;21.60;48.69;100345.17;111990;1248;20070;-31
2023/12/03 00:09:16;;;;;;;;;7.00;7.00;;;;;21.61;48.80;100345.22;112125;1248;20769;-31
2023/12/03 00:11:43;;;;;;;;;7.00;5.00;;;;;21.61;48.73;100342.65;111994;1248;19668;-31
2023/12/03 00:14:11;;;;;;;;;6.33;5.00;;;;;21.61;48.64;100346.52;112138;1263;19934;-31
2023/12/03 00:16:38;;;;;;;;;7.00;7.00;;;;;21.61;48.55;100341.19;111995;1257;20679;-31
2023/12/03 00:19:05;;;;;;;;;5.00;4.50;;;;;21.61;48.44;100342.23;112184;1248;19647;-31
2023/12/03 00:21:33;;;;;;;;;5.00;5.00;;;;;21.61;48.45;100346.48;112034;1248;19980;-31
2023/12/03 00:24:00;;;;;;;;;2.67;2.67;;;;;21.61;48.49;100345.16;112215;1263;19325;-31
2023/12/03 00:26:27;;;;;;;;;4.00;4.00;;;;;21.61;48.25;100343.41;112058;1263;19675;-31
2023/12/03 00:28:55;;;;;;;;;4.00;4.00;;;;;21.62;48.18;100345.31;112266;1248;20078;-31
2023/12/03 00:31:22;;;;;;;;;5.00;4.00;;;;;21.61;48.40;100346.64;112091;1248;22484;-31
2023/12/03 00:33:49;;;;;;;;;6.33;4.67;;;;;21.62;48.05;100350.72;112196;1248;18270;-31
2023/12/03 00:36:17;;;;;;;;;6.33;5.00;;;;;21.60;48.02;100354.55;112123;1256;19894;-31
2023/12/03 00:38:44;;;;;;;;;7.00;5.00;;;;;21.60;48.00;100355.20;111971;1248;20952;-31
2023/12/03 00:41:11;;;;;;;;;5.00;5.00;;;;;21.61;48.28;100358.95;112170;1263;18180;-31
2023/12/03 00:43:39;;;;;;;;;4.50;4.00;;;;;21.60;48.08;100357.94;111992;1263;18645;-31
2023/12/03 00:46:06;;;;;;;;;6.00;5.00;;;;;21.60;48.02;100357.77;112187;1248;20714;-31
2023/12/03 00:48:33;;;;;;;;;5.00;5.00;;;;;21.59;47.86;100361.38;111990;1248;19532;-31
2023/12/03 00:51:00;;;;;;;;;5.00;4.00;;;;;21.59;47.85;100362.95;112234;1257;18624;-31
2023/12/03 00:53:28;;;;;;;;;5.00;4.50;;;;;21.57;48.03;100362.75;112064;1263;19791;-31
2023/12/03 00:55:55;;;;;;;;;5.00;4.00;;;;;21.58;47.74;100363.77;112261;1248;18582;-30
2023/12/03 00:58:23;;;;;;;;;5.00;5.00;;;;;21.58;47.94;100368.52;112072;1263;18596;-31
2023/12/03 01:00:50;;;;;;;;;5.00;5.00;;;;;21.58;47.84;100376.86;112288;1248;20794;-31
2023/12/03 01:03:17;;;;;;;;;4.00;4.00;;;;;21.58;47.87;100377.79;112119;1248;19644;-31
2023/12/03 01:05:45;;;;;;;;;11.00;7.00;;;;;21.57;47.71;100384.50;112195;1263;20320;-31
2023/12/03 01:08:12;;;;;;;;;5.00;4.33;;;;;21.57;47.72;100383.14;112143;1248;20781;-31
2023/12/03 01:10:39;;;;;;;;;5.00;5.00;;;;;21.57;47.46;100384.39;111965;1248;20000;-31
2023/12/03 01:13:06;;;;;;;;;4.00;4.00;;;;;21.57;47.56;100389.08;112211;1263;18746;-31
2023/12/03 01:15:34;;;;;;;;;4.00;4.00;;;;;21.57;47.56;100389.14;112008;1248;20822;-31
2023/12/03 01:18:01;;;;;;;;;5.00;5.00;;;;;21.58;47.47;100391.58;112175;1263;18834;-31
2023/12/03 01:20:28;;;;;;;;;2.00;2.00;;;;;21.55;47.46;100389.27;112024;1250;20109;-31
2023/12/03 01:22:56;;;;;;;;;4.00;4.00;;;;;21.56;47.65;100394.92;112206;1263;19359;-31
2023/12/03 01:25:23;;;;;;;;;5.00;4.00;;;;;21.56;47.25;100394.10;112026;1263;19566;-30
2023/12/03 01:27:50;;;;;;;;;5.00;5.00;;;;;21.55;47.37;100399.51;112176;1263;18668;-31
2023/12/03 01:30:17;;;;;;;;;7.00;7.00;;;;;21.57;47.45;100400.26;112117;1256;20765;-31
2023/12/03 01:32:45;;;;;;;;;7.00;5.00;;;;;21.56;47.21;100398.24;111975;1250;19595;-31
2023/12/03 01:35:12;;;;;;;;;4.00;4.00;;;;;21.56;47.42;100398.47;112142;1248;20087;-31
2023/12/03 01:37:39;;;;;;;;;4.00;4.00;;;;;21.56;47.20;100400.76;112026;1248;19418;-31
2023/12/03 01:40:07;;;;;;;;;5.00;5.00;;;;;21.55;47.10;100399.34;111873;1263;357514;-31
2023/12/03 01:42:34;;;;;;;;;4.00;4.00;;;;;21.55;47.18;100402.39;111964;1248;20039;-31
2023/12/03 01:45:01;;;;;;;;;4.00;4.00;;;;;21.55;47.10;100403.21;112174;1251;20667;-31
2023/12/03 01:47:29;;;;;;;;;4.00;4.00;;;;;21.55;47.25;100403.48;112010;1248;19673;-31
2023/12/03 01:49:56;;;;;;;;;4.00;4.00;;;;;21.54;47.03;100405.77;112222;1247;20039;-31
2023/12/03 01:52:23;;;;;;;;;4.00;4.00;;;;;21.55;47.00;100407.85;112024;1248;22054;-31
2023/12/03 01:54:51;;;;;;;;;5.00;5.00;;;;;21.55;47.00;100408.55;112052;1248;19671;-31
2023/12/03 01:57:18;;;;;;;;;4.00;4.00;;;;;21.55;46.82;100409.64;112048;1248;21166;-31
2023/12/03 01:59:45;;;;;;;;;4.00;4.00;;;;;21.56;46.92;100412.52;112005;1263;19372;-31
2023/12/03 02:02:13;;;;;;;;;4.00;4.00;;;;;21.55;47.15;100413.84;112037;1263;19520;-31
2023/12/03 02:04:40;;;;;;;;;7.00;5.00;;;;;21.54;47.04;100416.62;112031;1248;20026;-31
2023/12/03 02:07:07;;;;;;;;;5.00;5.00;;;;;21.55;46.91;100416.90;112122;1248;21684;-31
2023/12/03 02:09:35;;;;;;;;;5.00;5.00;;;;;21.55;46.70;100420.05;112057;1250;19618;-31
2023/12/03 02:12:02;;;;;;;;;5.00;5.00;;;;;21.55;46.73;100417.98;112153;1248;19995;-31
2023/12/03 02:14:29;;;;;;;;;8.00;5.00;;;;;21.55;46.75;100421.03;112029;1248;20846;-31
2023/12/03 02:16:57;;;;;;;;;5.00;5.00;;;;;21.55;46.70;100423.11;112210;1248;19663;-31
2023/12/03 02:19:24;;;;;;;;;5.50;4.00;;;;;21.55;46.71;100426.22;112003;1256;20114;-31
2023/12/03 02:21:51;;;;;;;;;4.00;4.00;;;;;21.54;46.78;100425.08;112010;1256;22015;-31
2023/12/03 02:24:18;;;;;;;;;4.00;4.00;;;;;21.54;46.60;100424.42;112043;1263;18239;-31
2023/12/03 02:26:46;;;;;;;;;4.00;4.00;;;;;21.54;46.82;100433.85;111991;1248;20088;-31
2023/12/03 02:29:13;;;;;;;;;4.00;4.00;;;;;21.55;46.82;100434.39;112036;1256;20711;-31
2023/12/03 02:31:40;;;;;;;;;4.00;2.00;;;;;21.54;46.57;100442.84;112030;1248;19644;-31
2023/12/03 02:34:08;;;;;;;;;4.00;4.00;;;;;21.53;46.60;100443.23;112089;1248;20191;-31
2023/12/03 02:36:35;;;;;;;;;6.00;6.00;;;;;21.53;46.77;100448.25;112048;1248;20914;-31
2023/12/03 02:39:02;;;;;;;;;4.67;4.00;;;;;21.53;46.65;100455.23;112130;1247;19628;-31
2023/12/03 02:41:30;;;;;;;;;5.00;4.00;;;;;21.53;46.80;100455.61;112143;1248;21238;-31
2023/12/03 02:43:57;;;;;;;;;2.00;2.00;;;;;21.53;46.54;100457.30;112077;1250;20782;-31
2023/12/03 02:46:24;;;;;;;;;5.00;5.00;;;;;21.55;46.38;100454.88;112017;1248;19508;-31
2023/12/03 02:48:52;;;;;;;;;5.00;4.00;;;;;21.53;46.40;100462.15;112041;1248;20040;-31
2023/12/03 02:51:19;;;;;;;;;5.00;5.00;;;;;21.53;46.47;100469.34;111976;1248;21977;-31
2023/12/03 02:53:47;;;;;;;;;4.00;4.00;;;;;21.52;46.59;100468.52;112028;1263;18254;-31
2023/12/03 02:56:14;;;;;;;;;7.00;5.00;;;;;21.52;46.51;100469.45;111991;1248;20008;-31
2023/12/03 02:58:41;;;;;;;;;6.00;6.00;;;;;21.51;46.48;100471.04;112027;1256;20647;-31
2023/12/03 03:01:09;;;;;;;;;4.00;4.00;;;;;21.52;46.33;100471.31;112011;1248;20372;-31
2023/12/03 03:03:36;;;;;;;;;4.00;4.00;;;;;21.50;46.42;100469.58;112039;1248;18613;-31
2023/12/03 03:06:03;;;;;;;;;2.50;2.50;;;;;21.52;46.36;100473.81;112009;1248;21079;-31
2023/12/03 03:08:31;;;;;;;;;4.00;4.00;;;;;21.52;46.44;100475.35;112061;1248;19668;-31
2023/12/03 03:10:59;;;;;;;;;5.33;5.00;;;;;21.51;46.29;100479.43;111987;1256;18844;-31
2023/12/03 03:13:26;;;;;;;;;3.50;2.50;;;;;21.51;46.43;100482.16;112083;1263;19334;-31
2023/12/03 03:15:53;;;;;;;;;4.00;4.00;;;;;21.52;46.35;100481.73;112024;1247;19631;-31
2023/12/03 03:18:21;;;;;;;;;4.00;4.00;;;;;21.51;46.56;100481.89;112130;1248;20076;-31
2023/12/03 03:20:48;;;;;;;;;5.00;4.00;;;;;21.53;46.40;100484.00;112035;1248;20788;-31
2023/12/03 03:23:15;;;;;;;;;2.33;2.33;;;;;21.51;46.52;100482.88;112158;1248;19682;-31
2023/12/03 03:25:42;;;;;;;;;3.33;2.00;;;;;21.51;46.19;100488.11;111990;1248;19975;-31
2023/12/03 03:28:10;;;;;;;;;4.00;4.00;;;;;21.52;46.31;100490.82;112172;1263;19849;-31
2023/12/03 03:30:37;;;;;;;;;4.67;4.00;;;;;21.51;46.36;100495.35;112001;1248;19634;-31
2023/12/03 03:33:05;;;;;;;;;2.00;2.00;;;;;21.49;46.24;100497.00;112045;1248;19075;-31
2023/12/03 03:35:33;;;;;;;;;4.00;4.00;;;;;21.52;46.23;100499.81;111994;1247;19555;-31
2023/12/03 03:38:00;;;;;;;;;2.00;2.00;;;;;21.52;46.30;100503.30;112164;1248;19612;-31
2023/12/03 03:40:27;;;;;;;;;4.00;4.00;;;;;21.52;46.27;100505.37;112004;1251;20031;-31
2023/12/03 03:42:55;;;;;;;;;2.00;2.00;;;;;21.51;46.34;100502.77;112200;1257;20758;-31
2023/12/03 03:45:22;;;;;;;;;2.00;2.00;;;;;21.51;46.21;100508.77;112056;1263;18219;-31
2023/12/03 03:47:50;;;;;;;;;4.00;4.00;;;;;21.50;46.13;100509.69;112063;1248;19994;-31
2023/12/03 03:50:17;;;;;;;;;2.00;2.00;;;;;21.51;46.05;100505.48;112053;1263;19363;-31
2023/12/03 03:52:44;;;;;;;;;5.00;4.00;;;;;21.51;46.29;100504.34;112134;1263;18229;-31
2023/12/03 03:55:12;;;;;;;;;5.00;5.00;;;;;21.51;46.00;100504.73;112118;1248;20080;-31
2023/12/03 03:57:39;;;;;;;;;5.00;4.00;;;;;21.49;46.01;100502.89;111992;1247;20846;-31
2023/12/03 04:00:06;;;;;;;;;2.00;2.00;;;;;21.50;46.21;100508.27;112129;1251;19595;-31
2023/12/03 04:02:34;;;;;;;;;5.00;4.00;;;;;21.52;46.03;100508.87;111991;1263;18587;-31
2023/12/03 04:05:01;;;;;;;;;4.67;4.00;;;;;21.52;46.08;100511.10;112130;1263;20733;-31
2023/12/03 04:07:28;;;;;;;;;2.00;2.00;;;;;21.50;46.12;100513.84;111987;1248;20803;-31
2023/12/03 04:09:56;;;;;;;;;4.00;4.00;;;;;21.50;46.09;100518.30;112223;1263;18643;-31
2023/12/03 04:12:23;;;;;;;;;2.00;2.00;;;;;21.48;46.15;100516.95;112007;1248;20676;-31
2023/12/03 04:14:51;;;;;;;;;2.67;2.00;;;;;21.49;46.04;100524.91;112177;1263;18227;-31
2023/12/03 04:17:18;;;;;;;;;4.00;4.00;;;;;21.48;46.03;100522.35;111996;1263;18627;-31
2023/12/03 04:19:45;;;;;;;;;4.00;4.00;;;;;21.49;46.02;100528.55;112123;1255;20943;-31
2023/12/03 04:22:13;;;;;;;;;2.00;2.00;;;;;21.47;45.98;100530.86;112003;1249;20822;-31
2023/12/03 04:24:40;;;;;;;;;2.00;2.00;;;;;21.47;46.08;100537.94;112155;1249;18646;-31
2023/12/03 04:27:07;;;;;;;;;4.00;4.00;;;;;21.48;46.02;100541.31;112034;1249;20709;-31
2023/12/03 04:29:35;;;;;;;;;4.00;4.00;;;;;21.49;45.99;100543.05;112132;1249;19641;-31
2023/12/03 04:32:02;;;;;;;;;2.00;2.00;;;;;21.49;46.07;100543.11;112082;1250;20129;-31
2023/12/03 04:34:29;;;;;;;;;7.00;5.00;;;;;21.48;45.96;100552.33;112033;1251;20752;-31
2023/12/03 04:36:57;;;;;;;;;2.00;2.00;;;;;21.45;46.06;100551.13;112117;1264;19487;-31
2023/12/03 04:39:24;;;;;;;;;5.00;4.00;;;;;21.46;46.03;100553.48;111968;1249;19965;-31
2023/12/03 04:41:51;;;;;;;;;6.33;4.67;;;;;21.48;45.90;100554.18;112118;1249;19357;-31
2023/12/03 04:44:18;;;;;;;;;4.00;4.00;;;;;21.48;46.03;100558.44;111998;1257;18726;-31
2023/12/03 04:46:46;;;;;;;;;2.00;2.00;;;;;21.47;45.93;100560.18;112105;1264;20158;-31
2023/12/03 04:49:13;;;;;;;;;4.00;2.00;;;;;21.47;46.06;100564.77;112011;1249;20739;-31
2023/12/03 04:51:40;;;;;;;;;5.00;2.00;;;;;21.48;46.02;100569.60;112142;1264;18183;-31
2023/12/03 04:54:08;;;;;;;;;5.00;4.00;;;;;21.49;45.91;100570.52;112026;1257;19939;-31
2023/12/03 04:56:35;;;;;;;;;2.00;2.00;;;;;21.49;45.78;100572.92;112194;1249;20803;-31
2023/12/03 04:59:02;;;;;;;;;4.00;4.00;;;;;21.50;45.81;100576.08;112073;1250;19662;-31
2023/12/03 05:01:30;;;;;;;;;5.00;5.00;;;;;21.48;45.72;100578.27;112006;1249;20265;-31
2023/12/03 05:03:57;;;;;;;;;4.00;4.00;;;;;21.47;45.79;100578.27;112073;1250;20751;-31
2023/12/03 05:06:24;;;;;;;;;5.50;4.00;;;;;21.48;45.89;100580.02;111962;1249;19687;-31
2023/12/03 05:08:51;;;;;;;;;3.00;3.00;;;;;21.46;45.85;100582.09;112081;1264;18684;-31
2023/12/03 05:11:19;;;;;;;;;2.00;2.00;;;;;21.49;45.68;100590.86;111960;1250;20738;-31
2023/12/03 05:13:46;;;;;;;;;2.00;2.00;;;;;21.50;45.73;100592.32;112110;1249;19651;-31
2023/12/03 05:16:13;;;;;;;;;4.00;4.00;;;;;21.47;45.59;100594.24;111957;1249;19995;-31
2023/12/03 05:18:41;;;;;;;;;3.33;2.00;;;;;21.47;45.63;100596.96;112115;1249;21982;-31
2023/12/03 05:21:08;;;;;;;;;4.00;4.00;;;;;21.48;45.84;100601.21;112055;1249;19588;-31
2023/12/03 05:23:35;;;;;;;;;4.00;4.00;;;;;21.47;45.68;100601.82;112262;1256;20105;-31
2023/12/03 05:26:03;;;;;;;;;2.00;2.00;;;;;21.46;45.64;100604.60;112090;1248;20646;-31
2023/12/03 05:28:30;;;;;;;;;4.00;2.33;;;;;21.45;45.88;100604.05;112104;1248;19577;-31
2023/12/03 05:30:57;;;;;;;;;4.00;3.67;;;;;21.46;45.68;100608.09;112106;1248;20027;-31
2023/12/03 05:33:25;;;;;;;;;2.00;2.00;;;;;21.46;45.81;100617.36;112013;1264;19482;-31
2023/12/03 05:35:52;;;;;;;;;2.00;2.00;;;;;21.47;45.74;100615.39;112125;1248;19780;-31
2023/12/03 05:38:19;;;;;;;;;4.00;4.00;;;;;21.46;45.48;100621.77;112020;1248;21194;-31
2023/12/03 05:40:47;;;;;;;;;5.00;5.00;;;;;21.47;45.64;100624.33;112155;1256;20720;-31
2023/12/03 05:43:14;;;;;;;;;4.00;4.00;;;;;21.47;45.50;100629.66;111996;1247;19524;-31
2023/12/03 05:45:41;;;;;;;;;4.00;2.00;;;;;21.48;45.67;100633.21;112164;1263;18652;-31
2023/12/03 05:48:09;;;;;;;;;4.00;2.00;;;;;21.44;45.59;100637.14;112014;1248;20754;-31
2023/12/03 05:50:36;;;;;;;;;3.00;2.00;;;;;21.44;45.76;100640.69;112187;1248;19652;-31
2023/12/03 05:53:04;;;;;;;;;4.67;4.67;;;;;21.43;45.72;100639.77;112018;1263;18493;-31
2023/12/03 05:55:31;;;;;;;;;4.00;4.00;;;;;21.44;45.54;100647.22;112180;1248;19374;-31
2023/12/03 05:57:58;;;;;;;;;2.00;2.00;;;;;21.44;45.48;100647.94;112046;1248;19549;-31
2023/12/03 06:00:26;;;;;;;;;2.33;2.33;;;;;21.44;45.56;100649.58;112027;1248;20219;-31
2023/12/03 06:02:53;;;;;;;;;2.00;2.00;;;;;21.42;45.64;100651.98;112054;1263;19359;-31
2023/12/03 06:05:20;;;;;;;;;4.00;4.00;;;;;21.43;45.53;100661.67;111981;1248;20859;-31
2023/12/03 06:07:48;;;;;;;;;2.00;2.00;;;;;21.44;45.52;100660.86;112063;1263;21110;-31
2023/12/03 06:10:15;;;;;;;;;4.00;4.00;;;;;21.42;45.48;100663.80;111989;1263;20703;-31
2023/12/03 06:12:42;;;;;;;;;4.00;4.00;;;;;21.43;45.63;100668.97;112108;1263;19609;-31
2023/12/03 06:15:10;;;;;;;;;4.00;2.00;;;;;21.43;45.54;100672.90;112088;1263;18691;-31
2023/12/03 06:17:37;;;;;;;;;4.00;4.00;;;;;21.43;45.50;100675.45;112119;1247;20666;-31
2023/12/03 06:20:05;;;;;;;;;2.00;2.00;;;;;21.42;45.55;100676.00;112001;1248;18693;-31
2023/12/03 06:22:33;;;;;;;;;5.00;4.67;;;;;21.43;45.56;100679.77;112079;1263;20009;-31
2023/12/03 06:25:00;;;;;;;;;4.00;4.00;;;;;21.42;45.48;100683.09;112025;1256;20683;-31
2023/12/03 06:27:27;;;;;;;;;2.00;2.00;;;;;21.43;45.33;100685.92;112138;1248;19674;-31
2023/12/03 06:29:55;;;;;;;;;2.00;2.00;;;;;21.44;45.53;100693.49;112056;1256;20193;-31
2023/12/03 06:32:22;;;;;;;;;2.00;2.00;;;;;21.44;45.51;100695.84;112146;1263;20826;-31
2023/12/03 06:34:49;;;;;;;;;4.50;4.00;;;;;21.44;45.21;100700.48;111961;1264;19507;-31
2023/12/03 06:37:16;;;;;;;;;2.00;2.00;;;;;21.42;45.52;100706.96;112143;1251;20036;-31
2023/12/03 06:39:44;;;;;;;;;4.00;2.00;;;;;21.42;45.58;100709.42;111983;1248;20707;-31
2023/12/03 06:42:11;;;;;;;;;4.00;4.00;;;;;21.45;45.58;100716.17;111954;1263;19561;-31
2023/12/03 06:44:38;;;;;;;;;3.00;2.00;;;;;21.42;45.34;100717.44;112043;1263;18648;-31
2023/12/03 06:47:06;;;;;;;;;2.00;2.00;;;;;21.44;45.30;100717.86;112035;1263;19455;-31
2023/12/03 06:49:33;;;;;;;;;2.00;2.00;;;;;21.44;45.47;100723.74;112043;1251;19658;-31
2023/12/03 06:52:01;;;;;;;;;2.00;2.00;;;;;21.43;45.29;100724.51;112027;1263;19893;-31
2023/12/03 06:54:28;;;;;;;;;3.33;3.33;;;;;21.43;45.25;100728.44;112089;1263;19478;-31
2023/12/03 06:56:55;;;;;;;;;2.00;2.00;;;;;21.43;45.31;100734.77;112091;1248;19666;-31
2023/12/03 06:59:23;;;;;;;;;4.00;2.00;;;;;21.42;45.31;100738.73;112083;1256;19857;-31
2023/12/03 07:01:50;;;;;;;;;2.00;2.00;;;;;21.44;45.40;100742.98;112121;1263;19377;-31
2023/12/03 07:04:17;;;;;;;;;4.00;2.00;;;;;21.43;45.25;100747.67;112129;1250;19672;-31
2023/12/03 07:06:45;;;;;;;;;1.50;1.50;;;;;21.43;45.36;100751.11;112099;1256;18675;-32
2023/12/03 07:09:12;;;;;;;;;1.67;1.67;;;;;21.43;45.37;100756.77;112047;1248;20810;-31
2023/12/03 07:11:39;;;;;;;;;2.00;2.00;;;;;21.41;45.30;100761.95;111998;1248;19618;-31
2023/12/03 07:14:07;;;;;;;;;2.00;2.00;;;;;21.41;45.22;100767.80;112007;1248;20183;-31
2023/12/03 07:16:34;;;;;;;;;2.00;2.00;;;;;21.41;45.39;100770.19;111986;1248;20619;-31
2023/12/03 07:19:02;;;;;;;;;2.50;2.00;;;;;21.43;45.40;100775.41;112027;1248;19669;-31
2023/12/03 07:21:30;;;;;;;;;4.00;4.00;;;;;21.43;45.29;100774.00;112097;1247;18641;-31
2023/12/03 07:23:57;;;;;;;;;2.00;2.00;;;;;21.43;45.19;100779.61;111954;1248;20789;-31
2023/12/03 07:26:24;;;;;;;;;2.00;2.00;;;;;21.43;45.15;100779.17;111993;1248;19633;-31
2023/12/03 07:28:52;;;;;;;;;2.00;2.00;;;;;21.41;45.21;100787.95;112032;1256;19898;-31
2023/12/03 07:31:19;;;;;;;;;2.00;2.00;;;;;21.40;45.40;100788.61;111997;1247;20829;-31
2023/12/03 07:33:46;;;;;;;;;2.00;2.00;;;;;21.41;45.62;100796.19;112041;1263;18199;-31
2023/12/03 07:36:13;;;;;;;;;2.00;2.00;;;;;21.50;45.20;100799.67;112048;1248;20184;-31
2023/12/03 07:38:41;;;;;;;;;4.00;2.00;;;;;21.52;45.34;100800.10;112093;1248;20733;-31
2023/12/03 07:41:08;;;;;;;;;4.00;4.00;;;;;21.48;45.80;100802.73;112057;1248;20798;-31
2023/12/03 07:43:35;;;;;;;;;1.50;1.50;;;;;21.46;45.67;100805.06;112133;1256;19935;-31
2023/12/03 07:46:03;;;;;;;;;2.00;2.00;;;;;21.46;45.78;100811.11;112014;1256;22333;-31
2023/12/03 07:48:30;;;;;;;;;2.00;2.00;;;;;21.53;45.38;100809.64;112171;1248;19644;-31
2023/12/03 07:50:58;;;;;;;;;2.33;2.33;;;;;21.53;45.62;100809.70;112014;1263;18619;-31
2023/12/03 07:53:25;;;;;;;;;3.67;3.67;;;;;21.51;45.93;100813.73;112139;1249;20849;-31
2023/12/03 07:55:53;;;;;;;;;5.67;5.67;;;;;21.51;45.90;100809.86;111981;1248;19603;-31
2023/12/03 07:58:20;;;;;;;;;5.00;5.00;;;;;21.56;45.90;100809.36;112178;1248;20090;-31
2023/12/03 08:00:47;;;;;;;;;11.00;8.00;;;;;21.60;45.74;100812.96;112001;1248;21105;-31
2023/12/03 08:03:15;;;;;;;;;8.50;8.00;;;;;21.65;46.25;100817.48;112106;1250;19616;-31
2023/12/03 08:05:42;;;;;;;;;11.00;10.00;;;;;21.67;46.37;100815.63;112038;1248;21210;-31
2023/12/03 08:08:09;;;;;;;;;10.00;10.00;;;;;21.73;46.26;100819.92;112017;1248;20684;-31
2023/12/03 08:10:36;;;;;;;;;10.00;8.00;;;;;21.68;46.39;100822.05;112049;1263;18618;-31
2023/12/03 08:13:04;;;;;;;;;10.00;10.00;;;;;21.76;46.25;100819.38;111974;1263;18729;-31
2023/12/03 08:15:31;;;;;;;;;8.50;8.00;;;;;21.78;44.96;100822.86;112099;1248;20649;-31
2023/12/03 08:17:58;;;;;;;;;13.00;10.00;;;;;21.78;43.84;100830.27;111970;1248;21257;-31
2023/12/03 08:20:26;;;;;;;;;13.50;13.00;;;;;21.78;43.34;100834.09;112132;1263;19884;-30
2023/12/03 08:22:53;;;;;;;;;13.50;10.50;;;;;21.73;43.49;100835.30;111992;1248;20797;-31
2023/12/03 08:25:20;;;;;;;;;14.00;13.00;;;;;21.72;43.00;100838.95;112197;1251;20481;-30
2023/12/03 08:27:48;;;;;;;;;14.00;14.00;;;;;21.67;43.44;100846.38;112003;1248;21119;-31
2023/12/03 08:30:16;;;;;;;;;16.50;16.00;;;;;21.66;42.04;100845.08;112245;1256;20495;-31
2023/12/03 08:32:43;;;;;;;;;11.00;10.50;;;;;21.56;42.37;100843.05;111981;1248;20068;-31
2023/12/03 08:35:10;;;;;;;;;16.00;14.00;;;;;21.54;42.95;100849.70;112299;1248;18774;-31
2023/12/03 08:37:38;;;;;;;;;14.00;13.00;;;;;21.54;42.97;100852.27;112091;1247;20797;-31
2023/12/03 08:40:05;;;;;;;;;11.00;11.00;;;;;21.54;43.04;100857.39;112260;1256;19027;-31
2023/12/03 08:42:32;;;;;;;;;10.50;10.50;;;;;21.58;42.93;100865.02;112102;1263;18731;-31
2023/12/03 08:45:00;;;;;;;;;15.67;13.33;;;;;21.59;42.92;100863.65;112196;1248;22023;-31
2023/12/03 08:47:27;;;;;;;;;14.33;12.67;;;;;21.59;43.11;100866.39;112083;1263;20177;-31
2023/12/03 08:49:54;;;;;;;;;15.50;15.50;;;;;21.60;43.16;100873.09;112105;1248;18907;-30
2023/12/03 08:52:22;;;;;;;;;11.67;10.33;;;;;21.57;42.92;100869.27;112186;1263;19372;-31
2023/12/03 08:54:49;;;;;;;;;10.33;10.00;;;;;21.61;43.25;100872.81;111979;1248;19935;-31
2023/12/03 08:57:16;;;;;;;;;11.00;10.00;;;;;21.64;42.81;100871.89;112179;1251;21216;-31
2023/12/03 08:59:44;;;;;;;;;10.00;8.00;;;;;21.70;42.88;100874.89;111954;1264;19331;-31
2023/12/03 09:02:11;;;;;;;;;10.00;10.00;;;;;21.74;43.23;100877.13;112183;1248;20074;-31
2023/12/03 09:04:39;;;;;;;;;10.50;9.00;;;;;21.79;43.14;100878.92;111989;1255;20312;-30
2023/12/03 09:07:06;;;;;;;;;27.00;22.00;;;;;21.83;43.26;100880.28;112189;1263;19298;-31
2023/12/03 09:09:34;;;;;;;;;39.00;34.50;;;;;21.87;43.13;100880.34;111984;1263;19977;-31
2023/12/03 09:12:01;;;;;;;;;41.00;33.67;;;;;21.85;43.54;100879.58;112183;1263;21284;-31
2023/12/03 09:14:28;;;;;;;;;32.50;25.00;;;;;21.81;44.26;100879.73;112018;1263;19512;-31
2023/12/03 09:16:57;;;;;;;;;32.00;26.00;;;;;21.83;44.27;100884.38;112217;1256;20024;-31
2023/12/03 09:19:25;;;;;;;;;28.00;24.33;;;;;21.82;44.35;100884.15;112172;1263;18683;-31
2023/12/03 09:21:52;;;;;;;;;22.50;17.00;;;;;21.77;45.10;100886.27;112139;1263;19409;-31
2023/12/03 09:24:19;;;;;;;;;18.33;17.67;;;;;21.79;45.50;100882.46;111995;1248;20003;-30
2023/12/03 09:26:47;;;;;;;;;20.00;13.00;;;;;21.81;45.42;100885.41;112190;1248;20274;-30
2023/12/03 09:29:14;;;;;;;;;16.67;14.00;;;;;21.82;45.38;100886.34;111995;1263;19413;-31
2023/12/03 09:31:41;;;;;;;;;16.00;15.00;;;;;21.83;45.54;100886.71;112197;1248;21078;-31
2023/12/03 09:34:09;;;;;;;;;13.00;13.00;;;;;21.85;45.38;100889.28;112026;1248;20255;-32
2023/12/03 09:36:36;;;;;;;;;13.50;11.00;;;;;21.79;45.33;100894.73;112219;1263;19358;-31
2023/12/03 09:39:04;;;;;;;;;14.00;11.00;;;;;21.82;44.92;100897.78;112048;1263;18948;-31
2023/12/03 09:41:33;;;;;;;;;15.00;13.00;;;;;21.78;45.59;100898.98;112210;1248;20224;-31
2023/12/03 09:44:00;;;;;;;;;10.00;10.00;;;;;21.84;45.55;100896.91;112235;1263;20807;-31
2023/12/03 09:46:28;;;;;;;;;13.67;10.67;;;;;21.82;45.75;100901.60;112106;1263;19207;-31
2023/12/03 09:48:55;;;;;;;;;9.00;8.00;;;;;21.78;45.66;100903.80;112189;1248;20117;-30
2023/12/03 09:51:22;;;;;;;;;8.00;8.00;;;;;21.79;44.57;100899.27;112106;1248;19342;-31
2023/12/03 09:53:50;;;;;;;;;7.67;7.00;;;;;21.73;44.66;100903.95;111898;1263;21530;-31
2023/12/03 09:56:17;;;;;;;;;8.00;8.00;;;;;21.79;44.82;100905.30;111938;1263;19944;-31
2023/12/03 09:58:44;;;;;;;;;10.00;10.00;;;;;21.80;45.33;100907.23;111859;1248;22017;-30
2023/12/03 10:01:12;;;;;;;;;8.00;8.00;;;;;21.82;45.23;100910.70;111932;1263;20896;-31
2023/12/03 10:03:39;;;;;;;;;9.00;7.50;;;;;21.81;45.48;100913.27;111927;1248;19002;-30
2023/12/03 10:06:07;;;;;;;;;7.00;6.00;;;;;21.77;45.56;100910.27;111936;1263;20657;-30
2023/12/03 10:08:34;;;;;;;;;7.00;5.67;;;;;21.79;45.80;100915.02;111923;1248;19773;-30
2023/12/03 10:11:02;;;;;;;;;5.00;5.00;;;;;21.81;45.84;100915.73;111879;1256;18610;-30
2023/12/03 10:13:30;;;;;;;;;7.00;7.00;;;;;21.85;45.84;100921.95;111876;1251;21027;-30
2023/12/03 10:15:57;;;;;;;;;7.00;7.00;;;;;21.83;45.77;100918.57;112088;1264;18206;-30
2023/12/03 10:18:24;;;;;;;;;5.00;5.00;;;;;21.82;46.23;100918.52;111937;1264;18563;-30
2023/12/03 10:20:52;;;;;;;;;4.00;4.00;;;;;21.75;45.98;100921.14;112131;1264;19268;-31
2023/12/03 10:23:19;;;;;;;;;5.00;5.00;;;;;21.82;45.97;100925.11;111961;1250;19636;-30
2023/12/03 10:25:46;;;;;;;;;4.50;4.00;;;;;21.82;45.99;100927.23;112128;1264;18855;-30
2023/12/03 10:28:13;;;;;;;;;5.00;5.00;;;;;21.80;45.75;100931.87;111979;1256;20926;-30
2023/12/03 10:30:41;;;;;;;;;4.00;4.00;;;;;21.79;46.23;100927.95;112079;1249;19683;-30
2023/12/03 10:33:11;;;;;;;;;7.50;6.00;;;;;21.79;45.89;100928.77;111984;1249;20155;-30
2023/12/03 10:35:38;;;;;;;;;5.00;5.00;;;;;21.73;45.14;100923.86;111987;1249;20683;-30
2023/12/03 10:38:06;;;;;;;;;5.00;5.00;;;;;21.70;45.29;100923.69;112037;1264;18167;-31
2023/12/03 10:40:33;;;;;;;;;4.00;4.00;;;;;21.68;45.12;100929.36;112003;1249;18592;-30
2023/12/03 10:43:00;;;;;;;;;7.50;6.00;;;;;21.66;45.57;100931.92;111967;1257;20776;-31
2023/12/03 10:45:28;;;;;;;;;4.00;4.00;;;;;21.65;45.51;100930.06;112006;1249;20017;-30
2023/12/03 10:47:55;;;;;;;;;5.00;4.50;;;;;21.65;45.39;100932.03;111978;1249;19907;-31
2023/12/03 10:50:22;;;;;;;;;6.00;5.00;;;;;21.62;45.57;100932.23;112056;1264;19310;-31
2023/12/03 10:52:50;;;;;;;;;4.67;4.67;;;;;21.60;45.39;100936.12;112004;1249;19740;-31
2023/12/03 10:55:17;;;;;;;;;4.00;4.00;;;;;21.60;45.08;100938.95;112084;1250;20336;-30
2023/12/03 10:57:44;;;;;;;;;5.00;4.00;;;;;21.57;45.42;100933.61;111924;1250;21970;-31
2023/12/03 11:00:12;;;;;;;;;3.00;3.00;;;;;21.60;45.21;100930.55;112091;1249;19677;-31
2023/12/03 11:02:39;;;;;;;;;4.00;4.00;;;;;21.59;45.35;100936.61;111950;1250;18704;-30
2023/12/03 11:05:07;;;;;;;;;2.00;2.00;;;;;21.55;45.33;100937.58;112090;1264;19702;-31
2023/12/03 11:07:34;;;;;;;;;3.00;3.00;;;;;21.52;45.37;100935.94;111969;1250;19585;-31
2023/12/03 11:10:02;;;;;;;;;4.00;2.00;;;;;21.53;45.11;100937.69;112037;1264;22043;-31
2023/12/03 11:12:30;;;;;;;;;4.00;4.00;;;;;21.54;45.12;100937.59;111979;1263;19387;-30
2023/12/03 11:14:57;;;;;;;;;2.33;2.00;;;;;21.50;45.36;100939.04;112195;1263;18821;-30